Time;durP1;ratioP1;P1;durP2;ratioP2;P2;SDS_P1;SDS_P2;PMS_P1;PMS_P2;Temp;Humidity;BMP_temperature;BMP_pressure;BME280_temperature;BME280_humidity;BME280_pressure;Samples;Min_cycle;Max_cycle;Signal;HPM_P1;HPM_P2
2022/01/05 00:00:46;;;;;;;5.35;4.70;;;2.00;99.90;;;;;;5052580;28;20249;-75
2022/01/05 00:03:13;;;;;;;4.72;4.32;;;2.00;99.90;;;;;;5052316;28;20055;-75
2022/01/05 00:05:40;;;;;;;6.75;4.45;;;2.00;99.90;;;;;;5051787;28;20049;-75
2022/01/05 00:08:08;;;;;;;5.63;4.50;;;2.10;99.90;;;;;;5052336;28;20048;-75
2022/01/05 00:10:36;;;;;;;4.82;4.30;;;2.10;99.90;;;;;;5051208;28;20541;-75
2022/01/05 00:13:03;;;;;;;5.07;4.55;;;2.10;99.90;;;;;;5051757;28;20041;-75
2022/01/05 00:15:32;;;;;;;5.00;4.50;;;2.20;99.90;;;;;;5050155;28;20056;-75
2022/01/05 00:17:59;;;;;;;5.57;4.88;;;2.20;99.90;;;;;;5067532;28;20114;-75
2022/01/05 00:20:27;;;;;;;5.57;4.70;;;2.20;99.90;;;;;;5051591;28;20409;-75
2022/01/05 00:22:54;;;;;;;5.75;4.70;;;2.20;99.90;;;;;;5052252;28;20051;-75
2022/01/05 00:25:22;;;;;;;5.60;5.00;;;2.20;99.90;;;;;;5050785;28;20045;-75
2022/01/05 00:27:49;;;;;;;7.63;5.22;;;2.20;99.90;;;;;;5051190;28;20493;-74
2022/01/05 00:30:17;;;;;;;7.07;4.70;;;2.30;99.90;;;;;;5063880;28;20567;-74
2022/01/05 00:32:45;;;;;;;6.18;5.38;;;2.20;99.90;;;;;;5049478;28;20055;-74
2022/01/05 00:35:13;;;;;;;6.13;4.97;;;2.20;99.90;;;;;;5049931;28;20044;-75
2022/01/05 00:37:41;;;;;;;5.10;4.55;;;2.20;99.90;;;;;;5050745;28;20099;-74
2022/01/05 00:40:09;;;;;;;8.13;4.78;;;2.20;99.90;;;;;;5050284;28;20045;-74
2022/01/05 00:42:37;;;;;;;5.05;4.43;;;2.20;99.90;;;;;;5051593;28;20464;-74
2022/01/05 00:45:06;;;;;;;9.80;5.43;;;2.20;99.90;;;;;;5048603;28;20143;-75
2022/01/05 00:47:33;;;;;;;6.15;5.25;;;2.20;99.90;;;;;;5050924;28;20493;-75
2022/01/05 00:50:02;;;;;;;6.43;5.10;;;2.20;99.90;;;;;;5051805;28;20529;-76
2022/01/05 00:52:30;;;;;;;7.60;5.53;;;2.20;99.90;;;;;;5082550;28;20839;-73
2022/01/05 00:54:57;;;;;;;5.32;4.82;;;2.20;99.90;;;;;;5052393;28;20053;-73
2022/01/05 00:57:25;;;;;;;6.57;5.25;;;2.20;99.90;;;;;;5051465;28;20048;-74
2022/01/05 00:59:52;;;;;;;7.55;5.35;;;2.20;99.90;;;;;;5051238;28;20394;-75
2022/01/05 01:02:22;;;;;;;5.28;4.70;;;2.20;99.90;;;;;;5048796;28;20049;-74
2022/01/05 01:04:49;;;;;;;6.43;4.75;;;2.20;99.90;;;;;;5051197;28;20053;-76
2022/01/05 01:07:18;;;;;;;8.60;4.45;;;2.20;99.90;;;;;;5049947;28;20106;-73
2022/01/05 01:09:45;;;;;;;5.20;4.70;;;2.20;99.90;;;;;;5051516;28;20056;-75
2022/01/05 01:12:13;;;;;;;5.43;4.88;;;2.20;99.90;;;;;;5050001;28;20136;-74
2022/01/05 01:14:40;;;;;;;6.40;4.75;;;2.20;99.90;;;;;;5050132;28;20179;-74
2022/01/05 01:17:08;;;;;;;6.78;4.72;;;2.30;99.90;;;;;;5051042;28;20041;-76
2022/01/05 01:19:35;;;;;;;5.05;4.65;;;2.30;99.90;;;;;;5047135;28;20084;-75
2022/01/05 01:22:03;;;;;;;5.53;5.03;;;2.30;99.90;;;;;;5046641;28;20140;-76
2022/01/05 01:24:32;;;;;;;4.90;4.40;;;2.30;99.90;;;;;;5050560;28;20051;-75
2022/01/05 01:26:59;;;;;;;5.68;5.18;;;2.20;99.90;;;;;;5046630;28;20041;-77
2022/01/05 01:29:26;;;;;;;5.03;4.50;;;2.20;99.90;;;;;;5065391;28;20045;-76
2022/01/05 01:31:54;;;;;;;5.35;4.78;;;2.20;99.90;;;;;;5048562;28;20057;-76
2022/01/05 01:34:23;;;;;;;5.00;4.50;;;2.20;99.90;;;;;;5047729;28;20513;-76
2022/01/05 01:36:51;;;;;;;5.50;4.90;;;2.20;99.90;;;;;;5049460;28;20048;-75
2022/01/05 01:39:18;;;;;;;5.88;4.90;;;2.20;99.90;;;;;;5048690;28;20049;-76
2022/01/05 01:41:47;;;;;;;5.45;4.95;;;2.20;99.90;;;;;;5042413;28;20049;-75
2022/01/05 01:44:16;;;;;;;4.95;4.47;;;2.20;99.90;;;;;;5048967;28;20072;-74
2022/01/05 01:46:44;;;;;;;4.57;4.18;;;2.20;99.90;;;;;;5050808;28;20060;-75
2022/01/05 01:49:11;;;;;;;4.35;3.83;;;2.30;99.90;;;;;;5048621;28;20041;-74
2022/01/05 01:51:39;;;;;;;5.03;4.55;;;2.30;99.90;;;;;;5049317;28;20057;-75
2022/01/05 01:54:08;;;;;;;3.90;3.60;;;2.20;99.90;;;;;;5047781;28;20501;-74
2022/01/05 01:56:36;;;;;;;5.03;4.53;;;2.20;99.90;;;;;;5051078;28;20061;-73
2022/01/05 01:59:05;;;;;;;5.53;4.93;;;2.30;99.90;;;;;;5049113;28;20135;-74
2022/01/05 02:01:32;;;;;;;5.10;4.00;;;2.30;99.90;;;;;;5049854;28;20055;-74
2022/01/05 02:04:00;;;;;;;4.30;3.92;;;2.20;99.90;;;;;;5050422;28;20487;-74
2022/01/05 02:06:27;;;;;;;4.43;4.07;;;2.30;99.90;;;;;;5046913;28;20425;-74
2022/01/05 02:08:55;;;;;;;4.97;4.45;;;2.20;99.90;;;;;;5048458;28;20095;-73
2022/01/05 02:14:50;;;;;;;4.50;3.95;;;2.30;99.90;;;;;;5050082;28;20053;-74
2022/01/05 02:17:21;;;;;;;5.18;4.65;;;2.30;99.90;;;;;;5048339;28;20076;-74
2022/01/05 02:19:49;;;;;;;5.05;4.60;;;2.30;99.90;;;;;;5051062;28;20360;-74
2022/01/05 02:22:19;;;;;;;4.85;4.38;;;2.30;99.90;;;;;;5051183;28;20052;-74
2022/01/05 02:24:47;;;;;;;5.03;4.53;;;2.20;99.90;;;;;;5050919;28;20044;-74
2022/01/05 02:27:15;;;;;;;4.80;4.03;;;2.30;99.90;;;;;;5047426;28;20048;-74
2022/01/05 02:29:44;;;;;;;4.95;4.45;;;2.20;99.90;;;;;;5048517;28;20131;-74
2022/01/05 02:32:11;;;;;;;4.75;4.30;;;2.30;99.90;;;;;;5051254;28;20386;-73
2022/01/05 02:34:39;;;;;;;5.93;5.30;;;2.30;99.90;;;;;;5048613;28;20060;-73
2022/01/05 02:37:07;;;;;;;4.93;4.32;;;2.30;99.90;;;;;;5065758;28;20105;-74
2022/01/05 02:39:35;;;;;;;5.40;4.90;;;2.30;99.90;;;;;;5048630;28;20122;-74
2022/01/05 02:42:03;;;;;;;9.70;8.88;;;2.30;99.90;;;;;;5050225;28;20049;-74
2022/01/05 02:44:31;;;;;;;5.40;4.90;;;2.30;99.90;;;;;;5047723;28;20060;-73
2022/01/05 02:46:58;;;;;;;5.80;5.00;;;2.30;99.90;;;;;;5050757;28;20052;-73
2022/01/05 02:49:26;;;;;;;5.55;4.78;;;2.20;99.90;;;;;;5065758;28;20049;-73
2022/01/05 02:51:53;;;;;;;5.63;4.38;;;2.20;99.90;;;;;;5049124;28;20409;-74
2022/01/05 02:54:20;;;;;;;5.65;4.53;;;2.20;99.90;;;;;;5047800;28;20403;-74
2022/01/05 02:56:49;;;;;;;5.10;4.60;;;2.20;99.90;;;;;;5049163;28;20080;-74
2022/01/05 02:59:17;;;;;;;5.10;4.65;;;2.30;99.90;;;;;;5049945;28;20417;-76
2022/01/05 03:01:44;;;;;;;4.32;3.92;;;2.30;99.90;;;;;;5049184;28;20530;-76
2022/01/05 03:04:15;;;;;;;4.07;3.70;;;2.30;99.90;;;;;;5049497;28;20376;-77
2022/01/05 03:06:42;;;;;;;5.90;4.80;;;2.30;99.90;;;;;;5050095;28;20049;-76
2022/01/05 03:09:12;;;;;;;4.68;4.28;;;2.30;99.90;;;;;;5044651;28;20049;-76
2022/01/05 03:11:39;;;;;;;4.82;4.25;;;2.40;99.90;;;;;;5036948;28;20053;-75
2022/01/05 03:14:08;;;;;;;5.05;4.45;;;2.40;99.90;;;;;;5050188;28;20099;-75
2022/01/05 03:16:35;;;;;;;4.30;3.90;;;2.30;99.90;;;;;;5049574;28;20087;-78
2022/01/05 03:19:03;;;;;;;4.93;4.40;;;2.30;99.90;;;;;;5049234;28;20107;-76
2022/01/05 03:21:31;;;;;;;4.35;3.95;;;2.20;99.90;;;;;;5045483;28;20127;-75
2022/01/05 03:23:58;;;;;;;4.82;4.43;;;2.20;99.90;;;;;;5049448;28;20502;-76
2022/01/05 03:26:25;;;;;;;39.83;37.15;;;2.20;99.90;;;;;;5049441;28;20059;-76
2022/01/05 03:28:53;;;;;;;5.18;4.68;;;2.20;99.90;;;;;;5047180;28;20037;-76
2022/01/05 03:31:22;;;;;;;5.07;4.35;;;2.20;99.90;;;;;;5047440;28;20045;-76
2022/01/05 03:33:49;;;;;;;5.72;4.82;;;2.20;99.90;;;;;;5050210;28;20464;-77
2022/01/05 03:36:18;;;;;;;5.13;4.63;;;2.20;99.90;;;;;;5045635;28;20049;-76
2022/01/05 03:38:45;;;;;;;5.20;4.63;;;2.20;99.90;;;;;;5049393;28;20057;-76
2022/01/05 03:41:13;;;;;;;6.30;4.57;;;2.20;99.90;;;;;;5047976;28;20394;-75
2022/01/05 03:43:41;;;;;;;6.22;5.50;;;2.30;99.90;;;;;;5049691;28;20095;-75
2022/01/05 03:46:08;;;;;;;6.20;4.75;;;2.20;99.90;;;;;;5047469;28;20107;-75
2022/01/05 03:48:37;;;;;;;5.65;5.07;;;2.20;99.90;;;;;;5047961;28;20586;-75
2022/01/05 03:51:05;;;;;;;59.05;53.97;;;2.20;99.90;;;;;;5048597;28;20834;-75
2022/01/05 03:53:32;;;;;;;50.75;11.80;;;2.20;99.90;;;;;;5049646;28;20137;-75
2022/01/05 03:56:01;;;;;;;5.15;4.65;;;2.20;99.90;;;;;;5049546;28;20057;-75
2022/01/05 03:58:29;;;;;;;6.97;5.65;;;2.20;99.90;;;;;;5047752;28;20045;-75
2022/01/05 04:00:56;;;;;;;6.50;4.88;;;2.20;99.90;;;;;;5048542;28;20040;-76
2022/01/05 04:03:23;;;;;;;6.03;5.43;;;2.20;99.90;;;;;;5063164;28;20136;-76
2022/01/05 04:05:52;;;;;;;5.47;4.97;;;2.20;99.90;;;;;;5050058;28;20052;-76
2022/01/05 04:08:19;;;;;;;50.72;47.33;;;2.20;99.90;;;;;;5067505;28;20524;-77
2022/01/05 04:10:47;;;;;;;7.07;5.95;;;2.20;99.90;;;;;;5053385;28;20056;-76
2022/01/05 04:13:15;;;;;;;6.50;5.70;;;2.10;99.90;;;;;;5052776;28;20065;-76
2022/01/05 04:15:43;;;;;;;5.55;5.10;;;2.20;99.90;;;;;;5050992;28;20064;-76
2022/01/05 04:18:11;;;;;;;5.68;5.15;;;2.20;99.90;;;;;;5047934;28;20051;-76
2022/01/05 04:20:38;;;;;;;52.88;25.55;;;2.20;99.90;;;;;;5051400;28;20045;-76
2022/01/05 04:23:08;;;;;;;5.80;5.25;;;2.20;99.90;;;;;;5082435;28;20418;-76
2022/01/05 04:25:36;;;;;;;5.50;5.00;;;2.10;99.90;;;;;;5050773;28;20049;-76
2022/01/05 04:28:05;;;;;;;4.55;4.15;;;2.20;99.90;;;;;;5052490;28;20124;-77
2022/01/05 04:30:33;;;;;;;3.50;3.20;;;2.20;99.90;;;;;;5052768;28;20045;-76
2022/01/05 04:33:01;;;;;;;5.53;4.40;;;2.30;99.90;;;;;;5050657;28;20421;-76
2022/01/05 04:35:28;;;;;;;6.65;4.57;;;2.30;99.90;;;;;;5051356;28;20468;-75
2022/01/05 04:37:56;;;;;;;4.18;3.78;;;2.30;99.90;;;;;;5052664;28;20068;-76
2022/01/05 04:40:25;;;;;;;4.30;3.90;;;2.40;99.90;;;;;;5065505;28;20049;-76
2022/01/05 04:42:52;;;;;;;308.17;28.48;;;2.40;99.90;;;;;;5046110;28;20448;-76
2022/01/05 04:45:19;;;;;;;4.25;3.85;;;2.40;99.90;;;;;;5063275;28;20045;-76
2022/01/05 04:47:47;;;;;;;6.28;4.03;;;2.40;99.90;;;;;;5045591;28;20060;-78
2022/01/05 04:50:15;;;;;;;4.25;3.85;;;2.40;99.90;;;;;;5053406;28;20126;-75
2022/01/05 04:52:43;;;;;;;4.25;3.53;;;2.40;99.90;;;;;;5052434;28;20052;-76
2022/01/05 04:55:11;;;;;;;4.45;4.05;;;2.40;99.90;;;;;;5050864;28;20480;-76
2022/01/05 04:57:40;;;;;;;6.63;4.65;;;2.40;99.90;;;;;;5051468;28;20061;-75
2022/01/05 05:00:09;;;;;;;3.60;3.30;;;2.40;99.90;;;;;;5050856;28;20044;-75
2022/01/05 05:02:36;;;;;;;3.25;2.92;;;2.40;99.90;;;;;;5082817;28;20088;-76
2022/01/05 05:05:05;;;;;;;4.95;3.22;;;2.40;99.90;;;;;;5052527;28;20060;-77
2022/01/05 05:07:32;;;;;;;3.45;3.15;;;2.30;99.90;;;;;;5052739;28;20053;-74
2022/01/05 05:09:59;;;;;;;5.80;3.25;;;2.30;99.90;;;;;;5050262;28;20405;-74
2022/01/05 05:12:27;;;;;;;4.88;2.97;;;2.30;99.90;;;;;;5051180;28;20477;-75
2022/01/05 05:14:55;;;;;;;5.47;3.38;;;2.40;99.90;;;;;;5045377;28;20555;-74
2022/01/05 05:17:23;;;;;;;4.40;3.40;;;2.40;99.90;;;;;;5033548;28;20045;-74
2022/01/05 05:19:51;;;;;;;3.50;2.90;;;2.40;99.90;;;;;;5052379;28;20059;-75
2022/01/05 05:22:18;;;;;;;6.28;4.00;;;2.40;99.90;;;;;;5051149;28;20049;-74
2022/01/05 05:24:46;;;;;;;6.57;3.38;;;2.40;99.90;;;;;;5048434;28;20045;-75
2022/01/05 05:27:13;;;;;;;4.57;3.08;;;2.40;99.90;;;;;;5049096;28;20053;-76
2022/01/05 05:29:40;;;;;;;3.72;2.88;;;2.30;99.90;;;;;;5053651;28;20123;-74
2022/01/05 05:32:10;;;;;;;5.93;2.90;;;2.30;99.90;;;;;;5051847;28;20145;-75
2022/01/05 05:34:37;;;;;;;3.20;2.90;;;2.30;99.90;;;;;;5053550;28;20045;-74
2022/01/05 05:37:06;;;;;;;3.78;3.03;;;2.30;99.90;;;;;;5051492;28;20056;-74
2022/01/05 05:39:34;;;;;;;4.25;2.80;;;2.30;99.90;;;;;;5051964;28;20045;-77
2022/01/05 05:42:01;;;;;;;3.58;2.58;;;2.30;99.90;;;;;;5051693;28;20059;-74
2022/01/05 05:44:28;;;;;;;3.03;2.70;;;2.30;99.90;;;;;;5050676;28;20642;-75
2022/01/05 05:46:57;;;;;;;4.22;3.13;;;2.30;99.90;;;;;;5051789;28;20049;-74
2022/01/05 05:49:26;;;;;;;5.25;3.25;;;2.30;99.90;;;;;;5050225;28;20127;-75
2022/01/05 05:51:53;;;;;;;5.07;3.42;;;2.40;99.90;;;;;;5052007;28;20053;-74
2022/01/05 05:54:20;;;;;;;6.40;4.38;;;2.30;99.90;;;;;;5052042;28;20416;-75
2022/01/05 05:56:48;;;;;;;5.00;3.50;;;2.30;99.90;;;;;;5051491;28;20480;-75
2022/01/05 05:59:15;;;;;;;6.72;3.88;;;2.30;99.90;;;;;;5050313;28;20047;-76
2022/01/05 06:01:44;;;;;;;6.28;4.53;;;2.30;99.90;;;;;;5051547;28;20448;-77
2022/01/05 06:04:12;;;;;;;5.25;4.15;;;2.30;99.90;;;;;;5051452;28;20055;-76
2022/01/05 06:06:40;;;;;;;4.72;4.22;;;2.20;99.90;;;;;;5051398;28;20456;-76
2022/01/05 06:09:08;;;;;;;6.53;4.80;;;2.30;99.90;;;;;;5049582;28;20053;-77
2022/01/05 06:11:35;;;;;;;6.75;4.75;;;2.30;99.90;;;;;;5051802;28;20076;-77
2022/01/05 06:14:03;;;;;;;7.80;5.57;;;2.30;99.90;;;;;;5050000;28;20083;-76
2022/01/05 06:16:31;;;;;;;6.65;5.05;;;2.30;99.90;;;;;;5051120;28;20052;-76
2022/01/05 06:18:58;;;;;;;5.35;4.45;;;2.30;99.90;;;;;;5049875;28;20045;-77
2022/01/05 06:21:26;;;;;;;5.25;4.63;;;2.30;99.90;;;;;;5045627;28;20041;-78
2022/01/05 06:23:55;;;;;;;7.72;5.78;;;2.30;99.90;;;;;;5029655;28;20041;-81
2022/01/05 06:26:22;;;;;;;8.63;5.78;;;2.30;99.90;;;;;;5050219;28;20037;-79
2022/01/05 06:28:50;;;;;;;6.38;5.28;;;2.20;99.90;;;;;;5050758;28;20053;-79
2022/01/05 06:31:18;;;;;;;8.98;5.88;;;2.20;99.90;;;;;;5049232;28;20049;-78
2022/01/05 06:33:45;;;;;;;7.13;5.50;;;2.20;99.90;;;;;;5048016;28;20049;-77
2022/01/05 06:36:13;;;;;;;9.27;6.57;;;2.10;99.90;;;;;;5047605;28;20139;-77
2022/01/05 06:38:40;;;;;;;7.68;5.85;;;2.10;99.90;;;;;;5048691;28;20536;-77
2022/01/05 06:41:09;;;;;;;8.77;5.95;;;2.10;99.90;;;;;;5049955;28;20064;-77
2022/01/05 06:43:37;;;;;;;7.80;5.65;;;2.10;99.90;;;;;;5049541;28;20045;-77
2022/01/05 06:46:04;;;;;;;8.88;6.13;;;2.10;99.90;;;;;;5048863;28;20044;-75
2022/01/05 06:48:31;;;;;;;9.93;6.65;;;2.10;99.90;;;;;;5050685;28;20492;-75
2022/01/05 06:50:59;;;;;;;8.43;6.50;;;2.10;99.90;;;;;;5048771;28;20114;-76
2022/01/05 06:53:27;;;;;;;11.52;7.50;;;2.10;99.90;;;;;;5049757;28;20048;-75
2022/01/05 06:55:55;;;;;;;9.98;7.53;;;2.10;99.90;;;;;;5048767;28;20045;-75
2022/01/05 06:58:32;;;;;;;12.88;8.20;;;2.10;99.90;;;;;;5049735;28;20497;-76
2022/01/05 07:01:01;;;;;;;13.98;7.93;;;2.10;99.90;;;;;;5048183;28;20088;-76
2022/01/05 07:03:28;;;;;;;11.55;7.38;;;2.10;99.90;;;;;;5048628;28;20048;-76
2022/01/05 07:05:55;;;;;;;16.35;8.25;;;2.30;99.90;;;;;;5050643;28;20036;-76
2022/01/05 07:08:23;;;;;;;12.85;8.52;;;2.30;99.90;;;;;;5050305;28;20053;-76
2022/01/05 07:10:50;;;;;;;13.32;7.72;;;2.40;99.90;;;;;;5049668;28;20048;-78
2022/01/05 07:13:18;;;;;;;13.57;8.35;;;2.40;99.90;;;;;;5049286;28;20048;-77
2022/01/05 07:15:47;;;;;;;12.07;7.20;;;2.50;99.90;;;;;;5050891;28;20135;-76
2022/01/05 07:18:14;;;;;;;14.85;7.82;;;2.60;99.90;;;;;;5082996;28;20048;-77
2022/01/05 07:20:42;;;;;;;11.35;7.28;;;2.60;99.90;;;;;;5065697;28;20136;-77
2022/01/05 07:23:10;;;;;;;11.82;7.45;;;2.70;99.90;;;;;;5079727;28;20148;-81
2022/01/05 07:25:38;;;;;;;15.18;7.65;;;2.70;99.90;;;;;;5050096;28;20490;-79
2022/01/05 07:28:05;;;;;;;14.02;7.75;;;2.80;99.90;;;;;;5030392;28;20049;-79
2022/01/05 07:30:33;;;;;;;24.15;17.15;;;2.90;99.90;;;;;;5056122;28;20053;-77
2022/01/05 07:33:02;;;;;;;13.18;8.38;;;2.90;99.90;;;;;;5056914;28;20171;-77
2022/01/05 07:35:30;;;;;;;13.35;7.28;;;3.00;99.90;;;;;;5049252;28;20476;-81
2022/01/05 07:37:57;;;;;;;14.43;7.60;;;3.00;99.90;;;;;;5049037;28;20045;-79
2022/01/05 07:40:25;;;;;;;14.00;7.40;;;3.00;99.90;;;;;;5047757;28;20037;-76
2022/01/05 07:42:52;;;;;;;15.15;8.82;;;3.00;99.90;;;;;;5054500;28;20128;-78
2022/01/05 07:45:20;;;;;;;15.10;8.45;;;3.00;99.90;;;;;;5051622;28;20421;-82
2022/01/05 07:47:48;;;;;;;16.27;9.18;;;2.90;99.90;;;;;;5050871;28;20160;-76
2022/01/05 07:50:17;;;;;;;14.55;8.35;;;2.90;99.90;;;;;;5060880;28;20116;-80
2022/01/05 07:52:46;;;;;;;15.35;7.57;;;2.90;99.90;;;;;;4995910;28;20061;-79
2022/01/05 07:55:21;;;;;;;19.25;9.20;;;2.90;99.90;;;;;;5032221;28;20529;-80
2022/01/05 07:57:50;;;;;;;14.50;8.27;;;2.90;99.90;;;;;;5048886;28;20076;-83
2022/01/05 08:00:17;;;;;;;13.73;8.40;;;2.90;99.90;;;;;;5082398;28;20390;-83
2022/01/05 08:02:46;;;;;;;19.48;9.13;;;2.90;99.90;;;;;;5053063;28;20052;-75
2022/01/05 08:05:22;;;;;;;21.05;10.10;;;2.80;99.90;;;;;;5051639;28;20044;-78
2022/01/05 08:08:07;;;;;;;28.98;11.60;;;2.80;99.90;;;;;;5051962;28;20056;-76
2022/01/05 08:10:34;;;;;;;27.58;11.48;;;2.80;99.90;;;;;;5052873;28;20155;-76
2022/01/05 08:13:02;;;;;;;27.08;12.52;;;2.80;99.90;;;;;;5052750;28;20053;-76
2022/01/05 08:15:30;;;;;;;24.60;10.98;;;2.80;99.90;;;;;;5066680;28;20049;-75
2022/01/05 08:17:57;;;;;;;22.20;11.43;;;2.80;99.90;;;;;;5067286;28;20052;-76
2022/01/05 08:20:26;;;;;;;26.05;11.45;;;2.80;99.90;;;;;;5051324;28;20517;-76
2022/01/05 08:22:54;;;;;;;27.27;11.73;;;2.80;99.90;;;;;;5050212;28;20041;-75
2022/01/05 08:25:21;;;;;;;24.05;13.40;;;2.90;99.90;;;;;;5049034;28;20128;-75
2022/01/05 08:27:49;;;;;;;30.23;11.45;;;2.80;99.90;;;;;;5047456;28;20045;-79
2022/01/05 08:30:19;;;;;;;22.20;11.00;;;2.90;99.90;;;;;;5049289;28;20032;-79
2022/01/05 08:32:49;;;;;;;23.20;11.82;;;2.80;99.90;;;;;;5067155;28;20045;-84
2022/01/05 08:35:19;;;;;;;28.30;11.75;;;2.90;99.90;;;;;;5050086;28;20045;-80
2022/01/05 08:37:48;;;;;;;23.30;11.75;;;2.90;99.90;;;;;;5049222;28;20109;-76
2022/01/05 08:40:19;;;;;;;30.50;13.93;;;2.90;99.90;;;;;;5047300;28;20173;-77
2022/01/05 08:42:50;;;;;;;26.00;12.45;;;2.90;99.90;;;;;;5046758;28;20052;-76
2022/01/05 08:45:18;;;;;;;29.20;13.18;;;2.90;99.90;;;;;;5046665;28;20045;-75
2022/01/05 08:47:49;;;;;;;27.90;13.73;;;2.90;99.90;;;;;;5048685;28;20049;-77
2022/01/05 08:50:18;;;;;;;25.20;12.57;;;2.90;99.90;;;;;;5047623;28;20040;-77
2022/01/05 08:52:48;;;;;;;32.90;13.80;;;2.90;99.90;;;;;;5048105;28;20076;-77
2022/01/05 08:55:19;;;;;;;35.22;14.95;;;2.90;99.90;;;;;;5048410;28;20045;-76
2022/01/05 08:57:48;;;;;;;24.65;12.68;;;2.90;99.90;;;;;;5049025;28;20053;-78
2022/01/05 09:00:19;;;;;;;27.13;12.60;;;2.90;99.90;;;;;;5051237;28;20045;-76
2022/01/05 09:02:47;;;;;;;31.10;12.93;;;2.90;99.90;;;;;;5050256;28;20090;-76
2022/01/05 09:05:14;;;;;;;24.65;12.65;;;2.90;99.90;;;;;;5047825;28;20049;-82
2022/01/05 09:07:44;;;;;;;29.65;14.65;;;2.90;99.90;;;;;;5049658;28;20067;-82
2022/01/05 09:10:13;;;;;;;45.22;31.20;;;2.90;99.90;;;;;;5047531;28;20188;-84
2022/01/05 09:12:40;;;;;;;25.20;14.07;;;2.90;99.90;;;;;;5048865;28;20123;-80
2022/01/05 09:15:09;;;;;;;24.98;14.02;;;3.00;99.90;;;;;;5068935;28;20104;-82
2022/01/05 09:17:37;;;;;;;29.00;15.55;;;3.00;99.90;;;;;;5049553;28;20067;-82
2022/01/05 09:20:07;;;;;;;26.58;15.85;;;3.00;99.90;;;;;;5049857;28;20107;-82
2022/01/05 09:22:37;;;;;;;26.85;15.75;;;3.00;99.90;;;;;;5046191;28;20053;-84
2022/01/05 09:25:07;;;;;;;31.38;15.63;;;3.00;99.90;;;;;;5047060;28;20045;-82
2022/01/05 09:27:36;;;;;;;35.10;16.35;;;3.00;99.90;;;;;;5048303;28;20123;-79
2022/01/05 09:30:07;;;;;;;31.45;16.80;;;2.90;99.90;;;;;;5046643;28;20036;-79
2022/01/05 09:32:35;;;;;;;32.75;16.77;;;2.90;99.90;;;;;;5049260;28;20591;-79
2022/01/05 09:35:02;;;;;;;29.33;15.23;;;3.00;99.90;;;;;;5046858;28;20464;-82
2022/01/05 09:37:35;;;;;;;30.02;15.88;;;2.90;99.90;;;;;;5065186;28;20053;-83
2022/01/05 09:42:50;;;;;;;26.00;15.98;;;3.00;99.90;;;;;;5049178;28;20045;-80
2022/01/05 09:45:22;;;;;;;37.47;20.20;;;3.10;99.90;;;;;;5042572;28;20053;-80
2022/01/05 09:48:15;;;;;;;28.80;15.65;;;3.10;99.90;;;;;;5045002;28;20052;-80
2022/01/05 09:50:46;;;;;;;;;;;3.10;99.90;;;;;;5047436;28;20049;-79
2022/01/05 09:53:15;;;;;;;32.08;16.83;;;3.10;99.90;;;;;;5047728;28;20039;-80
2022/01/05 09:55:43;;;;;;;28.05;15.02;;;3.10;99.90;;;;;;5049295;28;20052;-80
2022/01/05 09:58:12;;;;;;;35.63;17.80;;;3.10;99.90;;;;;;5047586;28;20071;-79
2022/01/05 10:00:39;;;;;;;32.55;14.55;;;3.10;99.90;;;;;;5045759;28;20040;-80
2022/01/05 10:03:09;;;;;;;30.08;15.10;;;3.10;99.90;;;;;;5048171;28;20055;-79
2022/01/05 10:05:36;;;;;;;34.80;16.33;;;3.10;99.90;;;;;;5056732;28;20593;-78
2022/01/05 10:08:04;;;;;;;33.05;17.48;;;3.20;99.90;;;;;;5061264;28;20440;-80
2022/01/05 10:10:31;;;;;;;29.42;17.73;;;3.10;99.90;;;;;;5051107;28;20067;-78
2022/01/05 10:12:59;;;;;;;26.60;14.70;;;3.10;99.90;;;;;;5051340;28;20048;-80
2022/01/05 10:15:28;;;;;;;25.02;15.50;;;3.20;99.90;;;;;;5048736;28;20079;-79
2022/01/05 10:18:11;;;;;;;28.10;15.00;;;3.20;99.90;;;;;;5050750;28;20484;-78
2022/01/05 10:21:00;;;;;;;27.92;15.40;;;3.10;99.90;;;;;;5049410;28;20136;-77
2022/01/05 10:23:38;;;;;;;22.50;13.00;;;3.10;99.90;;;;;;5049588;28;20053;-79
2022/01/05 10:26:30;;;;;;;25.27;14.05;;;3.10;99.90;;;;;;5049534;28;20048;-78
2022/01/05 10:29:01;;;;;;;20.47;13.13;;;3.10;99.90;;;;;;5050767;28;20045;-79
2022/01/05 10:31:33;;;;;;;23.48;13.70;;;3.10;99.90;;;;;;5049448;28;20579;-82
2022/01/05 10:34:15;;;;;;;25.67;14.17;;;3.10;99.90;;;;;;5050090;28;20045;-78
2022/01/05 10:36:46;;;;;;;25.00;14.20;;;3.10;99.90;;;;;;5046284;28;20327;-77
2022/01/05 10:39:14;;;;;;;19.30;13.02;;;3.10;99.90;;;;;;5048884;28;20467;-81
2022/01/05 10:41:43;;;;;;;22.92;12.82;;;3.10;99.90;;;;;;5048786;28;20048;-80
2022/01/05 10:44:20;;;;;;;20.25;12.18;;;3.10;99.90;;;;;;5049001;28;20060;-80
2022/01/05 10:46:52;;;;;;;22.60;12.73;;;3.10;99.90;;;;;;5047381;28;20073;-80
2022/01/05 10:49:25;;;;;;;19.75;11.50;;;3.10;99.90;;;;;;5048921;28;20544;-80
2022/01/05 10:51:53;;;;;;;22.88;12.88;;;3.10;99.90;;;;;;5047585;28;20057;-80
2022/01/05 10:54:23;;;;;;;23.73;12.27;;;3.10;99.90;;;;;;5047386;28;20060;-78
2022/01/05 10:56:55;;;;;;;26.17;14.07;;;3.10;99.90;;;;;;5045778;28;20077;-78
2022/01/05 10:59:39;;;;;;;23.38;13.35;;;3.10;99.90;;;;;;5061156;28;20497;-77
2022/01/05 11:02:30;;;;;;;24.38;14.60;;;3.00;99.90;;;;;;5048832;28;20493;-79
2022/01/05 11:05:15;;;;;;;20.20;13.32;;;3.00;99.90;;;;;;5043257;28;20037;-78
2022/01/05 11:07:47;;;;;;;24.45;13.10;;;3.00;99.90;;;;;;5037185;28;20988;-78
2022/01/05 11:10:22;;;;;;;29.92;13.30;;;3.00;99.90;;;;;;5046181;28;20045;-81
2022/01/05 11:12:54;;;;;;;25.60;13.25;;;3.00;99.90;;;;;;5049015;28;20053;-81
2022/01/05 11:15:30;;;;;;;24.35;13.95;;;3.00;99.90;;;;;;5044251;28;20451;-79
2022/01/05 11:18:15;;;;;;;26.65;14.40;;;3.00;99.90;;;;;;5048868;28;20139;-82
2022/01/05 11:20:47;;;;;;;24.83;13.77;;;3.00;99.90;;;;;;5051293;28;20057;-82
2022/01/05 11:23:18;;;;;;;24.45;12.95;;;3.00;99.90;;;;;;5081796;28;20053;-81
2022/01/05 11:25:53;;;;;;;23.13;13.70;;;3.00;99.90;;;;;;5054668;28;20056;-83
2022/01/05 11:28:56;;;;;;;26.67;13.88;;;3.10;99.90;;;;;;5041147;28;20045;-79
2022/01/05 11:31:24;;;;;;;22.73;13.63;;;3.00;99.90;;;;;;5052919;28;20057;-77
2022/01/05 11:33:53;;;;;;;33.05;13.55;;;3.00;99.90;;;;;;5053730;28;20567;-78
2022/01/05 11:40:04;;;;;;;24.73;14.25;;;3.00;99.90;;;;;;5041553;28;20056;-81
2022/01/05 11:42:35;;;;;;;22.83;13.80;;;3.00;99.90;;;;;;5049458;28;20049;-78
2022/01/05 11:45:06;;;;;;;27.35;14.32;;;3.00;99.90;;;;;;5051660;28;20111;-78
2022/01/05 11:47:39;;;;;;;27.75;14.45;;;3.00;99.90;;;;;;5049875;28;20041;-78
2022/01/05 11:50:26;;;;;;;;;;;3.00;99.90;;;;;;5043089;28;20079;-80
2022/01/05 11:52:56;;;;;;;25.20;13.02;;;3.00;99.90;;;;;;5052112;28;19925;-78
2022/01/05 11:55:24;;;;;;;20.08;13.20;;;2.90;99.90;;;;;;5052909;28;20060;-77
2022/01/05 11:58:15;;;;;;;25.13;12.68;;;2.90;99.90;;;;;;5051261;28;20063;-80
2022/01/05 12:00:44;;;;;;;27.73;12.80;;;2.80;99.90;;;;;;5078107;28;20543;-80
2022/01/05 12:03:11;;;;;;;29.63;12.88;;;2.80;99.90;;;;;;5049142;28;20540;-78
2022/01/05 12:06:05;;;;;;;20.70;12.68;;;2.80;99.90;;;;;;5048353;28;20057;-80
2022/01/05 12:08:42;;;;;;;21.38;12.43;;;2.70;99.90;;;;;;5048375;28;20103;-78
2022/01/05 12:11:28;;;;;;;22.05;13.82;;;2.70;99.90;;;;;;5047800;28;20053;-81
2022/01/05 12:13:56;;;;;;;21.17;12.23;;;2.70;99.90;;;;;;5048142;28;20048;-83
2022/01/05 12:16:24;;;;;;;22.27;12.85;;;2.70;99.90;;;;;;5047449;28;20521;-78
2022/01/05 12:19:11;;;;;;;26.20;13.88;;;2.70;99.90;;;;;;5048114;28;20056;-77
2022/01/05 12:21:45;;;;;;;21.35;13.05;;;2.70;99.90;;;;;;5042022;28;20056;-78
2022/01/05 12:24:14;;;;;;;27.60;12.98;;;2.70;99.90;;;;;;5045413;28;20545;-78
2022/01/05 12:26:44;;;;;;;24.42;12.75;;;2.70;99.90;;;;;;5047156;28;20057;-79
2022/01/05 12:29:12;;;;;;;23.58;12.38;;;2.70;99.90;;;;;;5047851;28;20033;-80
2022/01/05 12:32:01;;;;;;;21.05;12.45;;;2.70;99.90;;;;;;5050123;28;20056;-78
2022/01/05 12:34:54;;;;;;;22.85;12.30;;;2.80;99.90;;;;;;5062047;28;20053;-78
2022/01/05 12:37:50;;;;;;;25.92;10.57;;;2.80;99.90;;;;;;5020268;28;20087;-81
2022/01/05 12:40:33;;;;;;;20.70;11.77;;;2.70;99.90;;;;;;5029381;28;20136;-79
2022/01/05 12:43:34;;;;;;;;;;;2.70;99.90;;;;;;5041272;28;20041;-77
2022/01/05 12:46:07;;;;;;;23.52;10.52;;;2.60;99.90;;;;;;5068743;28;19924;-81
2022/01/05 12:49:04;;;;;;;21.10;10.82;;;2.60;99.90;;;;;;5048818;28;20037;-80
2022/01/05 12:51:51;;;;;;;18.30;11.32;;;2.60;99.90;;;;;;5031131;28;20412;-79
2022/01/05 12:54:25;;;;;;;18.40;10.05;;;2.60;99.90;;;;;;5044380;28;20044;-79
2022/01/05 12:56:57;;;;;;;19.42;9.98;;;2.60;99.90;;;;;;5046902;28;20076;-78
2022/01/05 12:59:29;;;;;;;22.50;10.38;;;2.70;99.90;;;;;;5040342;28;20053;-78
2022/01/05 13:02:01;;;;;;;20.00;10.90;;;2.60;99.90;;;;;;5035141;28;20505;-79
2022/01/05 13:04:29;;;;;;;20.02;11.05;;;2.60;99.90;;;;;;5049074;28;20049;-79
2022/01/05 13:06:59;;;;;;;17.80;11.32;;;2.60;99.90;;;;;;5047069;28;20049;-77
2022/01/05 13:09:31;;;;;;;16.60;10.07;;;2.60;99.90;;;;;;5048669;28;20513;-79
2022/01/05 13:12:02;;;;;;;23.98;10.80;;;2.60;99.90;;;;;;5046160;28;20512;-77